sensor_id;sensor_type;location;lat;lon;timestamp;P1;durP1;ratioP1;P2;durP2;ratioP2
7154;SDS011;3619;53.784;10.440;2023-06-24T00:02:18;1.20;;;1.20;;
7154;SDS011;3619;53.784;10.440;2023-06-24T00:04:49;1.40;;;1.40;;
7154;SDS011;3619;53.784;10.440;2023-06-24T00:07:19;1.10;;;1.10;;
7154;SDS011;3619;53.784;10.440;2023-06-24T00:09:47;1.23;;;1.23;;
7154;SDS011;3619;53.784;10.440;2023-06-24T00:12:13;1.50;;;1.50;;
7154;SDS011;3619;53.784;10.440;2023-06-24T00:14:44;1.40;;;1.40;;
7154;SDS011;3619;53.784;10.440;2023-06-24T00:17:13;1.40;;;1.40;;
7154;SDS011;3619;53.784;10.440;2023-06-24T00:19:42;1.20;;;1.20;;
7154;SDS011;3619;53.784;10.440;2023-06-24T00:22:09;1.10;;;1.10;;
7154;SDS011;3619;53.784;10.440;2023-06-24T00:24:38;1.10;;;1.10;;
7154;SDS011;3619;53.784;10.440;2023-06-24T00:27:05;1.20;;;1.20;;
7154;SDS011;3619;53.784;10.440;2023-06-24T00:29:32;1.20;;;1.20;;
7154;SDS011;3619;53.784;10.440;2023-06-24T00:31:59;1.30;;;1.30;;
7154;SDS011;3619;53.784;10.440;2023-06-24T00:34:26;1.30;;;1.30;;
7154;SDS011;3619;53.784;10.440;2023-06-24T00:36:52;1.50;;;1.50;;
7154;SDS011;3619;53.784;10.440;2023-06-24T00:39:20;1.20;;;1.20;;
7154;SDS011;3619;53.784;10.440;2023-06-24T00:41:49;1.10;;;1.10;;
7154;SDS011;3619;53.784;10.440;2023-06-24T00:44:16;1.33;;;1.33;;
7154;SDS011;3619;53.784;10.440;2023-06-24T00:46:43;1.13;;;1.13;;
7154;SDS011;3619;53.784;10.440;2023-06-24T00:49:10;1.30;;;1.30;;
7154;SDS011;3619;53.784;10.440;2023-06-24T00:51:41;1.23;;;1.23;;
7154;SDS011;3619;53.784;10.440;2023-06-24T00:54:12;1.50;;;1.50;;
7154;SDS011;3619;53.784;10.440;2023-06-24T00:56:39;1.30;;;1.30;;
7154;SDS011;3619;53.784;10.440;2023-06-24T00:59:09;1.20;;;1.20;;
7154;SDS011;3619;53.784;10.440;2023-06-24T01:01:40;1.30;;;1.30;;
7154;SDS011;3619;53.784;10.440;2023-06-24T01:04:08;1.20;;;1.20;;
7154;SDS011;3619;53.784;10.440;2023-06-24T01:06:38;1.23;;;1.23;;
7154;SDS011;3619;53.784;10.440;2023-06-24T01:09:08;1.50;;;1.50;;
7154;SDS011;3619;53.784;10.440;2023-06-24T01:11:35;1.40;;;1.40;;
7154;SDS011;3619;53.784;10.440;2023-06-24T01:14:03;1.40;;;1.40;;
7154;SDS011;3619;53.784;10.440;2023-06-24T01:16:33;1.10;;;1.10;;
7154;SDS011;3619;53.784;10.440;2023-06-24T01:19:06;1.43;;;1.43;;
7154;SDS011;3619;53.784;10.440;2023-06-24T01:22:03;1.20;;;1.20;;
7154;SDS011;3619;53.784;10.440;2023-06-24T01:24:44;1.40;;;1.40;;
7154;SDS011;3619;53.784;10.440;2023-06-24T01:27:37;1.27;;;1.27;;
7154;SDS011;3619;53.784;10.440;2023-06-24T01:30:34;1.30;;;1.30;;
7154;SDS011;3619;53.784;10.440;2023-06-24T01:33:15;1.10;;;1.10;;
7154;SDS011;3619;53.784;10.440;2023-06-24T01:35:50;1.20;;;1.20;;
7154;SDS011;3619;53.784;10.440;2023-06-24T01:38:21;1.13;;;1.13;;
7154;SDS011;3619;53.784;10.440;2023-06-24T01:40:51;1.10;;;1.10;;
7154;SDS011;3619;53.784;10.440;2023-06-24T01:43:19;1.40;;;1.40;;
7154;SDS011;3619;53.784;10.440;2023-06-24T01:45:50;1.40;;;1.40;;
7154;SDS011;3619;53.784;10.440;2023-06-24T01:48:22;1.40;;;1.40;;
7154;SDS011;3619;53.784;10.440;2023-06-24T01:50:52;1.50;;;1.50;;
7154;SDS011;3619;53.784;10.440;2023-06-24T01:53:24;1.80;;;1.80;;
7154;SDS011;3619;53.784;10.440;2023-06-24T01:55:52;1.50;;;1.50;;
7154;SDS011;3619;53.784;10.440;2023-06-24T01:58:21;1.60;;;1.60;;
7154;SDS011;3619;53.784;10.440;2023-06-24T02:00:49;1.27;;;1.27;;
7154;SDS011;3619;53.784;10.440;2023-06-24T02:03:20;1.30;;;1.30;;
7154;SDS011;3619;53.784;10.440;2023-06-24T02:05:50;1.73;;;1.73;;
7154;SDS011;3619;53.784;10.440;2023-06-24T02:08:18;1.40;;;1.40;;
7154;SDS011;3619;53.784;10.440;2023-06-24T02:10:48;1.43;;;1.43;;
7154;SDS011;3619;53.784;10.440;2023-06-24T02:13:16;1.30;;;1.30;;
7154;SDS011;3619;53.784;10.440;2023-06-24T02:15:46;1.30;;;1.30;;
7154;SDS011;3619;53.784;10.440;2023-06-24T02:18:14;1.37;;;1.37;;
7154;SDS011;3619;53.784;10.440;2023-06-24T02:20:45;1.40;;;1.40;;
7154;SDS011;3619;53.784;10.440;2023-06-24T02:23:14;1.30;;;1.30;;
7154;SDS011;3619;53.784;10.440;2023-06-24T02:25:41;1.50;;;1.50;;
7154;SDS011;3619;53.784;10.440;2023-06-24T02:28:09;1.20;;;1.20;;
7154;SDS011;3619;53.784;10.440;2023-06-24T02:30:37;1.60;;;1.60;;
7154;SDS011;3619;53.784;10.440;2023-06-24T02:33:05;1.47;;;1.47;;
7154;SDS011;3619;53.784;10.440;2023-06-24T02:35:32;1.40;;;1.40;;
7154;SDS011;3619;53.784;10.440;2023-06-24T02:38:01;1.70;;;1.70;;
7154;SDS011;3619;53.784;10.440;2023-06-24T02:40:28;1.60;;;1.60;;
7154;SDS011;3619;53.784;10.440;2023-06-24T02:42:56;1.53;;;1.53;;
7154;SDS011;3619;53.784;10.440;2023-06-24T02:45:23;1.77;;;1.77;;
7154;SDS011;3619;53.784;10.440;2023-06-24T02:47:51;1.80;;;1.80;;
7154;SDS011;3619;53.784;10.440;2023-06-24T02:50:19;1.80;;;1.80;;
7154;SDS011;3619;53.784;10.440;2023-06-24T02:52:47;1.67;;;1.67;;
7154;SDS011;3619;53.784;10.440;2023-06-24T02:55:15;1.43;;;1.43;;
7154;SDS011;3619;53.784;10.440;2023-06-24T02:57:42;2.00;;;1.90;;
7154;SDS011;3619;53.784;10.440;2023-06-24T03:00:10;1.73;;;1.73;;
7154;SDS011;3619;53.784;10.440;2023-06-24T03:02:41;1.50;;;1.50;;
7154;SDS011;3619;53.784;10.440;2023-06-24T03:05:09;1.63;;;1.63;;
7154;SDS011;3619;53.784;10.440;2023-06-24T03:07:36;1.53;;;1.53;;
7154;SDS011;3619;53.784;10.440;2023-06-24T03:10:04;1.60;;;1.60;;
7154;SDS011;3619;53.784;10.440;2023-06-24T03:12:33;1.60;;;1.60;;
7154;SDS011;3619;53.784;10.440;2023-06-24T03:15:00;1.70;;;1.70;;
7154;SDS011;3619;53.784;10.440;2023-06-24T03:17:27;1.60;;;1.60;;
7154;SDS011;3619;53.784;10.440;2023-06-24T03:19:54;1.67;;;1.67;;
7154;SDS011;3619;53.784;10.440;2023-06-24T03:22:21;1.43;;;1.43;;
7154;SDS011;3619;53.784;10.440;2023-06-24T03:24:50;1.60;;;1.60;;
7154;SDS011;3619;53.784;10.440;2023-06-24T03:27:18;1.60;;;1.60;;
7154;SDS011;3619;53.784;10.440;2023-06-24T03:29:46;1.63;;;1.63;;
7154;SDS011;3619;53.784;10.440;2023-06-24T03:32:12;1.30;;;1.30;;
7154;SDS011;3619;53.784;10.440;2023-06-24T03:34:39;1.20;;;1.20;;
7154;SDS011;3619;53.784;10.440;2023-06-24T03:37:06;1.40;;;1.40;;
7154;SDS011;3619;53.784;10.440;2023-06-24T03:39:33;1.33;;;1.33;;
7154;SDS011;3619;53.784;10.440;2023-06-24T03:42:00;1.40;;;1.40;;
7154;SDS011;3619;53.784;10.440;2023-06-24T03:44:27;1.50;;;1.50;;
7154;SDS011;3619;53.784;10.440;2023-06-24T03:46:55;1.20;;;1.20;;
7154;SDS011;3619;53.784;10.440;2023-06-24T03:49:22;1.47;;;1.47;;
7154;SDS011;3619;53.784;10.440;2023-06-24T03:51:48;1.33;;;1.33;;
7154;SDS011;3619;53.784;10.440;2023-06-24T03:54:15;1.40;;;1.40;;
7154;SDS011;3619;53.784;10.440;2023-06-24T03:56:42;1.13;;;1.13;;
7154;SDS011;3619;53.784;10.440;2023-06-24T03:59:09;1.30;;;1.30;;
7154;SDS011;3619;53.784;10.440;2023-06-24T04:01:36;1.43;;;1.43;;
7154;SDS011;3619;53.784;10.440;2023-06-24T04:04:04;1.30;;;1.30;;
7154;SDS011;3619;53.784;10.440;2023-06-24T04:06:31;1.47;;;1.47;;
7154;SDS011;3619;53.784;10.440;2023-06-24T04:08:58;1.40;;;1.40;;
7154;SDS011;3619;53.784;10.440;2023-06-24T04:11:25;1.37;;;1.37;;
7154;SDS011;3619;53.784;10.440;2023-06-24T04:13:52;1.43;;;1.43;;
7154;SDS011;3619;53.784;10.440;2023-06-24T04:16:20;1.20;;;1.20;;
7154;SDS011;3619;53.784;10.440;2023-06-24T04:18:47;1.30;;;1.30;;
7154;SDS011;3619;53.784;10.440;2023-06-24T04:21:15;1.40;;;1.40;;
7154;SDS011;3619;53.784;10.440;2023-06-24T04:23:42;1.10;;;1.10;;
7154;SDS011;3619;53.784;10.440;2023-06-24T04:26:11;1.30;;;1.30;;
7154;SDS011;3619;53.784;10.440;2023-06-24T04:28:38;1.20;;;1.20;;
7154;SDS011;3619;53.784;10.440;2023-06-24T04:31:05;1.13;;;1.13;;
7154;SDS011;3619;53.784;10.440;2023-06-24T04:33:32;0.90;;;0.90;;
7154;SDS011;3619;53.784;10.440;2023-06-24T04:35:59;1.00;;;1.00;;
7154;SDS011;3619;53.784;10.440;2023-06-24T04:38:28;1.20;;;1.20;;
7154;SDS011;3619;53.784;10.440;2023-06-24T04:40:54;1.20;;;1.20;;
7154;SDS011;3619;53.784;10.440;2023-06-24T04:43:22;1.10;;;1.10;;
7154;SDS011;3619;53.784;10.440;2023-06-24T04:45:49;1.10;;;1.10;;
7154;SDS011;3619;53.784;10.440;2023-06-24T04:48:16;1.10;;;1.10;;
7154;SDS011;3619;53.784;10.440;2023-06-24T04:50:43;1.00;;;1.00;;
7154;SDS011;3619;53.784;10.440;2023-06-24T04:53:12;1.10;;;1.10;;
7154;SDS011;3619;53.784;10.440;2023-06-24T04:55:40;1.00;;;1.00;;
7154;SDS011;3619;53.784;10.440;2023-06-24T04:58:06;1.07;;;1.07;;
7154;SDS011;3619;53.784;10.440;2023-06-24T05:00:33;1.00;;;1.00;;
7154;SDS011;3619;53.784;10.440;2023-06-24T05:03:00;1.00;;;1.00;;
7154;SDS011;3619;53.784;10.440;2023-06-24T05:05:27;1.07;;;1.07;;
7154;SDS011;3619;53.784;10.440;2023-06-24T05:07:53;1.10;;;1.10;;
7154;SDS011;3619;53.784;10.440;2023-06-24T05:10:20;1.00;;;1.00;;
7154;SDS011;3619;53.784;10.440;2023-06-24T05:12:49;1.00;;;1.00;;
7154;SDS011;3619;53.784;10.440;2023-06-24T05:15:16;1.10;;;1.10;;
7154;SDS011;3619;53.784;10.440;2023-06-24T05:17:42;1.10;;;1.10;;
7154;SDS011;3619;53.784;10.440;2023-06-24T05:20:10;1.20;;;1.20;;
7154;SDS011;3619;53.784;10.440;2023-06-24T05:22:37;1.10;;;1.10;;
7154;SDS011;3619;53.784;10.440;2023-06-24T05:25:04;1.10;;;1.10;;
7154;SDS011;3619;53.784;10.440;2023-06-24T05:27:32;0.97;;;0.97;;
7154;SDS011;3619;53.784;10.440;2023-06-24T05:30:00;1.10;;;1.10;;
7154;SDS011;3619;53.784;10.440;2023-06-24T05:32:27;1.00;;;1.00;;
7154;SDS011;3619;53.784;10.440;2023-06-24T05:34:54;1.10;;;1.10;;
7154;SDS011;3619;53.784;10.440;2023-06-24T05:37:22;1.23;;;1.23;;
7154;SDS011;3619;53.784;10.440;2023-06-24T05:39:49;1.67;;;1.67;;
7154;SDS011;3619;53.784;10.440;2023-06-24T05:42:16;1.33;;;1.33;;
7154;SDS011;3619;53.784;10.440;2023-06-24T05:44:43;1.50;;;1.50;;
7154;SDS011;3619;53.784;10.440;2023-06-24T05:47:11;1.20;;;1.20;;
7154;SDS011;3619;53.784;10.440;2023-06-24T05:49:37;1.43;;;1.43;;
7154;SDS011;3619;53.784;10.440;2023-06-24T05:52:04;1.70;;;1.70;;
7154;SDS011;3619;53.784;10.440;2023-06-24T05:54:31;2.00;;;1.90;;
7154;SDS011;3619;53.784;10.440;2023-06-24T05:56:58;2.00;;;1.90;;
7154;SDS011;3619;53.784;10.440;2023-06-24T05:59:31;1.50;;;1.50;;
7154;SDS011;3619;53.784;10.440;2023-06-24T06:01:59;1.73;;;1.73;;
7154;SDS011;3619;53.784;10.440;2023-06-24T06:04:28;2.07;;;1.97;;
7154;SDS011;3619;53.784;10.440;2023-06-24T06:06:56;1.70;;;1.70;;
7154;SDS011;3619;53.784;10.440;2023-06-24T06:09:23;1.70;;;1.70;;
7154;SDS011;3619;53.784;10.440;2023-06-24T06:11:50;1.73;;;1.73;;
7154;SDS011;3619;53.784;10.440;2023-06-24T06:14:17;2.07;;;1.97;;
7154;SDS011;3619;53.784;10.440;2023-06-24T06:16:44;1.60;;;1.60;;
7154;SDS011;3619;53.784;10.440;2023-06-24T06:19:11;5.20;;;4.90;;
7154;SDS011;3619;53.784;10.440;2023-06-24T06:21:39;1.30;;;1.30;;
7154;SDS011;3619;53.784;10.440;2023-06-24T06:24:06;1.40;;;1.40;;
7154;SDS011;3619;53.784;10.440;2023-06-24T06:26:34;1.30;;;1.30;;
7154;SDS011;3619;53.784;10.440;2023-06-24T06:29:01;1.20;;;1.20;;
7154;SDS011;3619;53.784;10.440;2023-06-24T06:31:28;1.27;;;1.27;;
7154;SDS011;3619;53.784;10.440;2023-06-24T06:33:57;1.40;;;1.40;;
7154;SDS011;3619;53.784;10.440;2023-06-24T06:36:24;1.50;;;1.50;;
7154;SDS011;3619;53.784;10.440;2023-06-24T06:38:52;1.30;;;1.30;;
7154;SDS011;3619;53.784;10.440;2023-06-24T06:41:19;1.20;;;1.20;;
7154;SDS011;3619;53.784;10.440;2023-06-24T06:43:49;1.20;;;1.20;;
7154;SDS011;3619;53.784;10.440;2023-06-24T06:46:16;1.20;;;1.20;;
7154;SDS011;3619;53.784;10.440;2023-06-24T06:48:43;1.30;;;1.30;;
7154;SDS011;3619;53.784;10.440;2023-06-24T06:51:10;1.30;;;1.30;;
7154;SDS011;3619;53.784;10.440;2023-06-24T06:53:39;1.37;;;1.37;;
7154;SDS011;3619;53.784;10.440;2023-06-24T06:56:13;1.23;;;1.23;;
7154;SDS011;3619;53.784;10.440;2023-06-24T06:58:49;1.00;;;1.00;;
7154;SDS011;3619;53.784;10.440;2023-06-24T07:01:17;1.00;;;1.00;;
7154;SDS011;3619;53.784;10.440;2023-06-24T07:03:48;0.90;;;0.90;;
7154;SDS011;3619;53.784;10.440;2023-06-24T07:06:17;1.10;;;1.10;;
7154;SDS011;3619;53.784;10.440;2023-06-24T07:08:45;1.00;;;1.00;;
7154;SDS011;3619;53.784;10.440;2023-06-24T07:11:13;1.00;;;1.00;;
7154;SDS011;3619;53.784;10.440;2023-06-24T07:13:40;0.80;;;0.80;;
7154;SDS011;3619;53.784;10.440;2023-06-24T07:16:06;0.90;;;0.90;;
7154;SDS011;3619;53.784;10.440;2023-06-24T07:18:33;0.83;;;0.83;;
7154;SDS011;3619;53.784;10.440;2023-06-24T07:21:00;0.80;;;0.80;;
7154;SDS011;3619;53.784;10.440;2023-06-24T07:23:27;0.90;;;0.90;;
7154;SDS011;3619;53.784;10.440;2023-06-24T07:25:54;0.80;;;0.80;;
7154;SDS011;3619;53.784;10.440;2023-06-24T07:28:23;0.83;;;0.83;;
7154;SDS011;3619;53.784;10.440;2023-06-24T07:30:49;0.90;;;0.90;;
7154;SDS011;3619;53.784;10.440;2023-06-24T07:33:16;0.90;;;0.90;;
7154;SDS011;3619;53.784;10.440;2023-06-24T07:35:43;0.90;;;0.90;;
7154;SDS011;3619;53.784;10.440;2023-06-24T07:38:13;0.93;;;0.93;;
7154;SDS011;3619;53.784;10.440;2023-06-24T07:40:41;0.70;;;0.70;;
7154;SDS011;3619;53.784;10.440;2023-06-24T07:43:07;0.70;;;0.70;;
7154;SDS011;3619;53.784;10.440;2023-06-24T07:45:37;0.90;;;0.90;;
7154;SDS011;3619;53.784;10.440;2023-06-24T07:48:04;0.90;;;0.90;;
7154;SDS011;3619;53.784;10.440;2023-06-24T07:50:32;1.00;;;1.00;;
7154;SDS011;3619;53.784;10.440;2023-06-24T07:52:59;0.70;;;0.70;;
7154;SDS011;3619;53.784;10.440;2023-06-24T07:55:26;0.93;;;0.93;;
7154;SDS011;3619;53.784;10.440;2023-06-24T07:57:53;0.80;;;0.80;;
7154;SDS011;3619;53.784;10.440;2023-06-24T08:00:20;1.00;;;1.00;;
7154;SDS011;3619;53.784;10.440;2023-06-24T08:02:49;0.90;;;0.90;;
7154;SDS011;3619;53.784;10.440;2023-06-24T08:05:16;1.00;;;1.00;;
7154;SDS011;3619;53.784;10.440;2023-06-24T08:07:45;0.77;;;0.77;;
7154;SDS011;3619;53.784;10.440;2023-06-24T08:10:16;0.97;;;0.97;;
7154;SDS011;3619;53.784;10.440;2023-06-24T08:12:43;0.80;;;0.80;;
7154;SDS011;3619;53.784;10.440;2023-06-24T08:15:10;1.00;;;1.00;;
7154;SDS011;3619;53.784;10.440;2023-06-24T08:17:38;0.90;;;0.90;;
7154;SDS011;3619;53.784;10.440;2023-06-24T08:20:08;0.80;;;0.80;;
7154;SDS011;3619;53.784;10.440;2023-06-24T08:22:36;0.87;;;0.87;;
7154;SDS011;3619;53.784;10.440;2023-06-24T08:25:03;0.90;;;0.90;;
7154;SDS011;3619;53.784;10.440;2023-06-24T08:27:33;0.80;;;0.80;;
7154;SDS011;3619;53.784;10.440;2023-06-24T08:30:02;0.90;;;0.90;;
7154;SDS011;3619;53.784;10.440;2023-06-24T08:32:29;0.83;;;0.83;;
7154;SDS011;3619;53.784;10.440;2023-06-24T08:34:57;0.90;;;0.90;;
7154;SDS011;3619;53.784;10.440;2023-06-24T08:37:25;0.80;;;0.80;;
7154;SDS011;3619;53.784;10.440;2023-06-24T08:39:53;0.80;;;0.80;;
7154;SDS011;3619;53.784;10.440;2023-06-24T08:42:20;0.90;;;0.90;;
7154;SDS011;3619;53.784;10.440;2023-06-24T08:44:47;0.97;;;0.97;;
7154;SDS011;3619;53.784;10.440;2023-06-24T08:47:21;0.90;;;0.90;;
7154;SDS011;3619;53.784;10.440;2023-06-24T08:49:52;0.70;;;0.70;;
7154;SDS011;3619;53.784;10.440;2023-06-24T08:52:21;0.80;;;0.80;;
7154;SDS011;3619;53.784;10.440;2023-06-24T08:54:55;0.80;;;0.80;;
7154;SDS011;3619;53.784;10.440;2023-06-24T08:57:28;0.90;;;0.90;;
7154;SDS011;3619;53.784;10.440;2023-06-24T08:59:55;0.70;;;0.70;;
7154;SDS011;3619;53.784;10.440;2023-06-24T09:02:22;0.60;;;0.60;;
7154;SDS011;3619;53.784;10.440;2023-06-24T09:04:50;0.60;;;0.60;;
7154;SDS011;3619;53.784;10.440;2023-06-24T09:07:23;0.90;;;0.90;;
7154;SDS011;3619;53.784;10.440;2023-06-24T09:09:54;0.70;;;0.70;;
7154;SDS011;3619;53.784;10.440;2023-06-24T09:12:21;0.90;;;0.90;;
7154;SDS011;3619;53.784;10.440;2023-06-24T09:14:50;0.80;;;0.80;;
7154;SDS011;3619;53.784;10.440;2023-06-24T09:17:19;0.80;;;0.80;;
7154;SDS011;3619;53.784;10.440;2023-06-24T09:19:50;0.70;;;0.70;;
7154;SDS011;3619;53.784;10.440;2023-06-24T09:22:18;0.93;;;0.93;;
7154;SDS011;3619;53.784;10.440;2023-06-24T09:24:48;0.80;;;0.80;;
7154;SDS011;3619;53.784;10.440;2023-06-24T09:27:15;0.70;;;0.70;;
7154;SDS011;3619;53.784;10.440;2023-06-24T09:29:47;0.70;;;0.70;;
7154;SDS011;3619;53.784;10.440;2023-06-24T09:32:13;0.80;;;0.80;;
7154;SDS011;3619;53.784;10.440;2023-06-24T09:34:43;0.80;;;0.80;;
7154;SDS011;3619;53.784;10.440;2023-06-24T09:37:12;0.90;;;0.90;;
7154;SDS011;3619;53.784;10.440;2023-06-24T09:39:51;0.70;;;0.70;;
7154;SDS011;3619;53.784;10.440;2023-06-24T09:42:20;0.80;;;0.80;;
7154;SDS011;3619;53.784;10.440;2023-06-24T09:44:52;0.77;;;0.77;;
7154;SDS011;3619;53.784;10.440;2023-06-24T09:47:22;0.90;;;0.90;;
7154;SDS011;3619;53.784;10.440;2023-06-24T09:49:52;0.70;;;0.70;;
7154;SDS011;3619;53.784;10.440;2023-06-24T09:52:20;0.87;;;0.87;;
7154;SDS011;3619;53.784;10.440;2023-06-24T09:54:48;0.80;;;0.80;;
7154;SDS011;3619;53.784;10.440;2023-06-24T09:57:21;0.80;;;0.80;;
7154;SDS011;3619;53.784;10.440;2023-06-24T09:59:51;0.80;;;0.80;;
7154;SDS011;3619;53.784;10.440;2023-06-24T10:02:18;0.70;;;0.70;;
7154;SDS011;3619;53.784;10.440;2023-06-24T10:04:45;0.70;;;0.70;;
7154;SDS011;3619;53.784;10.440;2023-06-24T10:07:13;0.83;;;0.83;;
7154;SDS011;3619;53.784;10.440;2023-06-24T10:09:40;0.70;;;0.70;;
7154;SDS011;3619;53.784;10.440;2023-06-24T10:12:11;0.80;;;0.80;;
7154;SDS011;3619;53.784;10.440;2023-06-24T10:14:43;0.90;;;0.90;;
7154;SDS011;3619;53.784;10.440;2023-06-24T10:17:11;0.70;;;0.70;;
7154;SDS011;3619;53.784;10.440;2023-06-24T10:19:38;0.60;;;0.60;;
7154;SDS011;3619;53.784;10.440;2023-06-24T10:22:07;0.80;;;0.80;;
7154;SDS011;3619;53.784;10.440;2023-06-24T10:24:36;0.80;;;0.80;;
7154;SDS011;3619;53.784;10.440;2023-06-24T10:27:05;0.80;;;0.80;;
7154;SDS011;3619;53.784;10.440;2023-06-24T10:29:36;0.70;;;0.70;;
7154;SDS011;3619;53.784;10.440;2023-06-24T10:32:07;0.80;;;0.80;;
7154;SDS011;3619;53.784;10.440;2023-06-24T10:34:39;0.77;;;0.77;;
7154;SDS011;3619;53.784;10.440;2023-06-24T10:37:10;0.70;;;0.70;;
7154;SDS011;3619;53.784;10.440;2023-06-24T10:39:53;0.70;;;0.70;;
7154;SDS011;3619;53.784;10.440;2023-06-24T10:42:25;0.70;;;0.70;;
7154;SDS011;3619;53.784;10.440;2023-06-24T10:44:56;0.80;;;0.80;;
7154;SDS011;3619;53.784;10.440;2023-06-24T10:47:24;0.80;;;0.80;;
7154;SDS011;3619;53.784;10.440;2023-06-24T10:49:56;0.80;;;0.80;;
7154;SDS011;3619;53.784;10.440;2023-06-24T10:52:23;0.80;;;0.80;;
7154;SDS011;3619;53.784;10.440;2023-06-24T10:54:51;0.80;;;0.80;;
7154;SDS011;3619;53.784;10.440;2023-06-24T10:57:22;0.80;;;0.80;;
7154;SDS011;3619;53.784;10.440;2023-06-24T10:59:53;0.67;;;0.67;;
7154;SDS011;3619;53.784;10.440;2023-06-24T11:02:22;0.70;;;0.70;;
7154;SDS011;3619;53.784;10.440;2023-06-24T11:04:50;0.60;;;0.60;;
7154;SDS011;3619;53.784;10.440;2023-06-24T11:07:19;0.80;;;0.80;;
7154;SDS011;3619;53.784;10.440;2023-06-24T11:09:53;0.80;;;0.80;;
7154;SDS011;3619;53.784;10.440;2023-06-24T11:12:23;0.80;;;0.80;;
7154;SDS011;3619;53.784;10.440;2023-06-24T11:14:55;0.80;;;0.80;;
7154;SDS011;3619;53.784;10.440;2023-06-24T11:17:27;0.90;;;0.90;;
7154;SDS011;3619;53.784;10.440;2023-06-24T11:19:55;0.87;;;0.87;;
7154;SDS011;3619;53.784;10.440;2023-06-24T11:22:23;0.80;;;0.80;;
7154;SDS011;3619;53.784;10.440;2023-06-24T11:24:53;0.70;;;0.70;;
7154;SDS011;3619;53.784;10.440;2023-06-24T11:27:24;0.60;;;0.60;;
7154;SDS011;3619;53.784;10.440;2023-06-24T11:29:52;0.70;;;0.70;;
7154;SDS011;3619;53.784;10.440;2023-06-24T11:32:19;0.70;;;0.70;;
7154;SDS011;3619;53.784;10.440;2023-06-24T11:34:49;0.60;;;0.60;;
7154;SDS011;3619;53.784;10.440;2023-06-24T11:37:17;0.90;;;0.90;;
7154;SDS011;3619;53.784;10.440;2023-06-24T11:39:45;0.63;;;0.63;;
7154;SDS011;3619;53.784;10.440;2023-06-24T11:42:26;0.70;;;0.70;;
7154;SDS011;3619;53.784;10.440;2023-06-24T11:44:58;0.70;;;0.70;;
7154;SDS011;3619;53.784;10.440;2023-06-24T11:47:26;0.90;;;0.90;;
7154;SDS011;3619;53.784;10.440;2023-06-24T11:50:01;0.70;;;0.70;;
7154;SDS011;3619;53.784;10.440;2023-06-24T11:52:37;0.70;;;0.70;;
7154;SDS011;3619;53.784;10.440;2023-06-24T11:55:10;0.83;;;0.83;;
7154;SDS011;3619;53.784;10.440;2023-06-24T11:57:48;0.70;;;0.70;;
7154;SDS011;3619;53.784;10.440;2023-06-24T12:00:16;0.70;;;0.70;;
7154;SDS011;3619;53.784;10.440;2023-06-24T12:02:45;0.70;;;0.70;;
7154;SDS011;3619;53.784;10.440;2023-06-24T12:05:20;0.80;;;0.80;;
7154;SDS011;3619;53.784;10.440;2023-06-24T12:07:52;0.80;;;0.80;;
7154;SDS011;3619;53.784;10.440;2023-06-24T12:10:22;0.80;;;0.80;;
7154;SDS011;3619;53.784;10.440;2023-06-24T12:12:49;0.60;;;0.60;;
7154;SDS011;3619;53.784;10.440;2023-06-24T12:15:16;0.70;;;0.70;;
7154;SDS011;3619;53.784;10.440;2023-06-24T12:17:43;1.33;;;1.33;;
7154;SDS011;3619;53.784;10.440;2023-06-24T12:20:10;0.70;;;0.70;;
7154;SDS011;3619;53.784;10.440;2023-06-24T12:22:40;0.70;;;0.70;;
7154;SDS011;3619;53.784;10.440;2023-06-24T12:25:09;0.70;;;0.70;;
7154;SDS011;3619;53.784;10.440;2023-06-24T12:27:36;0.57;;;0.57;;
7154;SDS011;3619;53.784;10.440;2023-06-24T12:30:05;0.60;;;0.60;;
7154;SDS011;3619;53.784;10.440;2023-06-24T12:32:33;0.70;;;0.70;;
7154;SDS011;3619;53.784;10.440;2023-06-24T12:35:00;0.70;;;0.70;;
7154;SDS011;3619;53.784;10.440;2023-06-24T12:37:28;0.70;;;0.70;;
7154;SDS011;3619;53.784;10.440;2023-06-24T12:39:58;0.90;;;0.90;;
7154;SDS011;3619;53.784;10.440;2023-06-24T12:42:27;0.50;;;0.50;;
7154;SDS011;3619;53.784;10.440;2023-06-24T12:44:55;0.70;;;0.70;;
7154;SDS011;3619;53.784;10.440;2023-06-24T12:47:22;0.80;;;0.80;;
7154;SDS011;3619;53.784;10.440;2023-06-24T12:49:49;0.77;;;0.77;;
7154;SDS011;3619;53.784;10.440;2023-06-24T12:52:16;0.60;;;0.60;;
7154;SDS011;3619;53.784;10.440;2023-06-24T12:54:44;0.83;;;0.83;;
7154;SDS011;3619;53.784;10.440;2023-06-24T12:57:12;0.70;;;0.70;;
7154;SDS011;3619;53.784;10.440;2023-06-24T12:59:40;0.70;;;0.70;;
7154;SDS011;3619;53.784;10.440;2023-06-24T13:02:08;0.60;;;0.60;;
7154;SDS011;3619;53.784;10.440;2023-06-24T13:04:34;0.77;;;0.77;;
7154;SDS011;3619;53.784;10.440;2023-06-24T13:07:01;0.60;;;0.60;;
7154;SDS011;3619;53.784;10.440;2023-06-24T13:09:30;0.70;;;0.70;;
7154;SDS011;3619;53.784;10.440;2023-06-24T13:11:56;0.70;;;0.70;;
7154;SDS011;3619;53.784;10.440;2023-06-24T13:14:24;0.63;;;0.63;;
7154;SDS011;3619;53.784;10.440;2023-06-24T13:16:53;0.60;;;0.60;;
7154;SDS011;3619;53.784;10.440;2023-06-24T13:19:20;0.60;;;0.60;;
7154;SDS011;3619;53.784;10.440;2023-06-24T13:21:48;0.73;;;0.73;;
7154;SDS011;3619;53.784;10.440;2023-06-24T13:24:15;0.60;;;0.60;;
7154;SDS011;3619;53.784;10.440;2023-06-24T13:26:42;0.70;;;0.70;;
7154;SDS011;3619;53.784;10.440;2023-06-24T13:29:09;0.70;;;0.70;;
7154;SDS011;3619;53.784;10.440;2023-06-24T13:31:37;0.70;;;0.70;;
7154;SDS011;3619;53.784;10.440;2023-06-24T13:34:04;0.77;;;0.77;;
7154;SDS011;3619;53.784;10.440;2023-06-24T13:36:32;0.70;;;0.70;;
7154;SDS011;3619;53.784;10.440;2023-06-24T13:39:00;0.77;;;0.77;;
7154;SDS011;3619;53.784;10.440;2023-06-24T13:41:28;0.60;;;0.60;;
7154;SDS011;3619;53.784;10.440;2023-06-24T13:43:57;0.80;;;0.80;;
7154;SDS011;3619;53.784;10.440;2023-06-24T13:46:24;0.60;;;0.60;;
7154;SDS011;3619;53.784;10.440;2023-06-24T13:48:53;0.60;;;0.60;;
7154;SDS011;3619;53.784;10.440;2023-06-24T13:51:19;0.70;;;0.70;;
7154;SDS011;3619;53.784;10.440;2023-06-24T13:53:49;0.70;;;0.70;;
7154;SDS011;3619;53.784;10.440;2023-06-24T13:56:17;0.60;;;0.60;;
7154;SDS011;3619;53.784;10.440;2023-06-24T13:58:45;0.67;;;0.67;;
7154;SDS011;3619;53.784;10.440;2023-06-24T14:01:12;0.70;;;0.70;;
7154;SDS011;3619;53.784;10.440;2023-06-24T14:03:39;1.50;;;1.43;;
7154;SDS011;3619;53.784;10.440;2023-06-24T14:06:08;0.73;;;0.73;;
7154;SDS011;3619;53.784;10.440;2023-06-24T14:08:35;0.70;;;0.70;;
7154;SDS011;3619;53.784;10.440;2023-06-24T14:11:02;0.80;;;0.80;;
7154;SDS011;3619;53.784;10.440;2023-06-24T14:13:31;0.70;;;0.70;;
7154;SDS011;3619;53.784;10.440;2023-06-24T14:16:01;0.70;;;0.70;;
7154;SDS011;3619;53.784;10.440;2023-06-24T14:18:31;0.70;;;0.70;;
7154;SDS011;3619;53.784;10.440;2023-06-24T14:21:01;0.70;;;0.70;;
7154;SDS011;3619;53.784;10.440;2023-06-24T14:23:33;0.70;;;0.70;;
7154;SDS011;3619;53.784;10.440;2023-06-24T14:26:09;0.70;;;0.70;;
7154;SDS011;3619;53.784;10.440;2023-06-24T14:28:36;0.63;;;0.63;;
7154;SDS011;3619;53.784;10.440;2023-06-24T14:31:03;0.70;;;0.70;;
7154;SDS011;3619;53.784;10.440;2023-06-24T14:33:29;0.60;;;0.60;;
7154;SDS011;3619;53.784;10.440;2023-06-24T14:35:59;0.70;;;0.70;;
7154;SDS011;3619;53.784;10.440;2023-06-24T14:38:26;0.70;;;0.70;;
7154;SDS011;3619;53.784;10.440;2023-06-24T14:40:58;0.90;;;0.90;;
7154;SDS011;3619;53.784;10.440;2023-06-24T14:43:25;0.63;;;0.63;;
7154;SDS011;3619;53.784;10.440;2023-06-24T14:45:55;0.70;;;0.70;;
7154;SDS011;3619;53.784;10.440;2023-06-24T14:48:23;0.70;;;0.70;;
7154;SDS011;3619;53.784;10.440;2023-06-24T14:50:52;0.60;;;0.60;;
7154;SDS011;3619;53.784;10.440;2023-06-24T14:53:25;0.70;;;0.70;;
7154;SDS011;3619;53.784;10.440;2023-06-24T14:55:52;0.73;;;0.73;;
7154;SDS011;3619;53.784;10.440;2023-06-24T14:58:20;0.70;;;0.70;;
7154;SDS011;3619;53.784;10.440;2023-06-24T15:00:47;0.70;;;0.70;;
7154;SDS011;3619;53.784;10.440;2023-06-24T15:03:14;0.80;;;0.80;;
7154;SDS011;3619;53.784;10.440;2023-06-24T15:05:40;0.80;;;0.80;;
7154;SDS011;3619;53.784;10.440;2023-06-24T15:08:11;0.70;;;0.70;;
7154;SDS011;3619;53.784;10.440;2023-06-24T15:10:38;0.70;;;0.70;;